Time;durP1;ratioP1;P1;durP2;ratioP2;P2;SDS_P1;SDS_P2;PMS_P1;PMS_P2;Temp;Humidity;BMP_temperature;BMP_pressure;BME280_temperature;BME280_humidity;BME280_pressure;Samples;Min_cycle;Max_cycle;Signal;HPM_P1;HPM_P2
2024/04/19 00:03:12;;;;;;;;;;;;;;;3.45;100.00;95835.59;10872601;27;3370;-70
2024/04/19 00:08:17;;;;;;;;;;;;;;;3.43;100.00;95824.38;10852485;27;2983;-71
2024/04/19 00:13:22;;;;;;;;;;;;;;;3.40;100.00;95816.88;10885598;27;3245;-69
2024/04/19 00:18:26;;;;;;;;;;;;;;;3.34;100.00;95818.59;10880187;27;2997;-70
2024/04/19 00:23:31;;;;;;;;;;;;;;;3.32;100.00;95811.91;10890293;27;3069;-70
2024/04/19 00:28:35;;;;;;;;;;;;;;;3.20;100.00;95815.31;10882761;27;3220;-70
2024/04/19 00:33:42;;;;;;;;;;;;;;;3.12;100.00;95817.50;10883193;27;3995;-70
2024/04/19 00:38:46;;;;;;;;;;;;;;;3.11;100.00;95816.66;10875350;27;3151;-70
2024/04/19 00:43:51;;;;;;;;;;;;;;;3.11;100.00;95819.31;10879330;27;3128;-70
2024/04/19 00:48:55;;;;;;;;;;;;;;;3.05;100.00;95812.25;10884038;27;3192;-69
2024/04/19 00:54:00;;;;;;;;;;;;;;;3.04;100.00;95813.28;10879648;27;3255;-69
2024/04/19 00:59:04;;;;;;;;;;;;;;;3.08;100.00;95808.34;10880698;27;3140;-71
2024/04/19 01:04:09;;;;;;;;;;;;;;;3.06;100.00;95800.59;10880447;27;3007;-70
2024/04/19 01:09:13;;;;;;;;;;;;;;;3.01;100.00;95795.16;10877761;27;3117;-68
2024/04/19 01:14:18;;;;;;;;;;;;;;;2.89;100.00;95799.59;10884753;27;2907;-70
2024/04/19 01:19:22;;;;;;;;;;;;;;;2.85;100.00;95801.06;10879007;27;3310;-69
2024/04/19 01:24:27;;;;;;;;;;;;;;;2.86;100.00;95792.06;10884424;27;2855;-69
2024/04/19 01:29:31;;;;;;;;;;;;;;;2.85;100.00;95795.78;10878370;27;3140;-70
2024/04/19 01:34:35;;;;;;;;;;;;;;;2.79;100.00;95797.47;10881554;27;3211;-70
2024/04/19 01:39:41;;;;;;;;;;;;;;;2.69;100.00;95792.72;10882372;27;3136;-71
2024/04/19 01:44:45;;;;;;;;;;;;;;;2.57;100.00;95783.88;10882186;27;2871;-69
2024/04/19 01:49:50;;;;;;;;;;;;;;;2.49;100.00;95784.19;10885054;27;3061;-69
2024/04/19 01:54:55;;;;;;;;;;;;;;;2.39;100.00;95770.63;10851913;27;3232;-70
2024/04/19 02:00:01;;;;;;;;;;;;;;;2.36;100.00;95777.19;10878669;27;3236;-69
2024/04/19 02:05:05;;;;;;;;;;;;;;;2.36;100.00;95771.88;10882269;27;3176;-70
2024/04/19 02:10:10;;;;;;;;;;;;;;;2.39;100.00;95765.31;10852147;27;3131;-69
2024/04/19 02:15:16;;;;;;;;;;;;;;;2.46;100.00;95759.94;10879326;27;3003;-69
2024/04/19 02:20:20;;;;;;;;;;;;;;;2.49;100.00;95760.31;10851615;27;3249;-69
2024/04/19 02:25:24;;;;;;;;;;;;;;;2.48;100.00;95755.19;10878560;27;3129;-70
2024/04/19 02:35:50;;;;;;;;;;;;;;;2.33;100.00;95750.28;10880079;27;3243;-70
2024/04/19 02:40:54;;;;;;;;;;;;;;;2.34;100.00;95741.28;10880917;27;3234;-70
2024/04/19 02:45:58;;;;;;;;;;;;;;;2.34;100.00;95738.63;10881025;27;3206;-71
2024/04/19 02:51:03;;;;;;;;;;;;;;;2.29;100.00;95731.38;10879628;27;3185;-71
2024/04/19 02:56:07;;;;;;;;;;;;;;;2.29;100.00;95722.56;10872371;27;3250;-70
2024/04/19 03:01:12;;;;;;;;;;;;;;;2.35;100.00;95727.81;10877176;27;2984;-69
2024/04/19 03:06:17;;;;;;;;;;;;;;;2.33;100.00;95707.84;10879527;27;2942;-71
2024/04/19 03:11:21;;;;;;;;;;;;;;;2.45;100.00;95711.38;10883756;27;3136;-75
2024/04/19 03:16:26;;;;;;;;;;;;;;;2.49;100.00;95704.59;10879795;27;3250;-70
2024/04/19 03:21:30;;;;;;;;;;;;;;;2.49;100.00;95706.44;10882864;27;3219;-74
2024/04/19 03:26:35;;;;;;;;;;;;;;;2.50;100.00;95713.34;10880240;27;3227;-72
2024/04/19 03:31:40;;;;;;;;;;;;;;;2.56;100.00;95700.00;10879638;27;3144;-70
2024/04/19 03:36:45;;;;;;;;;;;;;;;2.73;100.00;95694.84;10880308;27;3233;-70
2024/04/19 03:41:53;;;;;;;;;;;;;;;2.89;100.00;95688.09;10883622;27;3044;-70
2024/04/19 03:46:57;;;;;;;;;;;;;;;2.95;100.00;95687.19;10889717;27;3152;-71
2024/04/19 03:52:02;;;;;;;;;;;;;;;2.85;100.00;95681.63;10893596;27;3129;-71
2024/04/19 03:57:06;;;;;;;;;;;;;;;2.89;100.00;95686.25;10881263;27;3133;-70
2024/04/19 04:02:10;;;;;;;;;;;;;;;3.02;100.00;95676.47;10883264;27;2999;-71
2024/04/19 04:07:15;;;;;;;;;;;;;;;3.03;100.00;95672.75;10882840;27;3297;-73
2024/04/19 04:12:19;;;;;;;;;;;;;;;3.08;100.00;95673.69;10882271;27;3219;-72
2024/04/19 04:17:24;;;;;;;;;;;;;;;3.04;100.00;95680.50;10889105;27;3128;-70
2024/04/19 04:22:29;;;;;;;;;;;;;;;3.03;100.00;95696.66;10884189;27;3037;-71
2024/04/19 04:27:33;;;;;;;;;;;;;;;3.08;100.00;95686.19;10883610;27;3128;-72
2024/04/19 04:32:38;;;;;;;;;;;;;;;3.07;100.00;95687.22;10878006;27;3010;-69
2024/04/19 04:37:42;;;;;;;;;;;;;;;3.08;100.00;95684.31;10877827;27;3124;-70
2024/04/19 04:42:47;;;;;;;;;;;;;;;3.16;100.00;95676.00;10884474;27;3089;-69
2024/04/19 04:47:52;;;;;;;;;;;;;;;3.17;100.00;95680.28;10884182;27;3176;-70
2024/04/19 04:53:01;;;;;;;;;;;;;;;3.34;100.00;95663.69;10888754;27;3124;-72
2024/04/19 04:58:06;;;;;;;;;;;;;;;3.34;100.00;95666.34;10879490;27;3088;-70
2024/04/19 05:03:11;;;;;;;;;;;;;;;3.48;100.00;95662.41;10884585;27;3251;-71
2024/04/19 05:08:15;;;;;;;;;;;;;;;3.62;100.00;95647.81;10879917;27;2994;-70
2024/04/19 05:13:19;;;;;;;;;;;;;;;3.74;100.00;95645.16;10882324;27;3089;-70
2024/04/19 05:18:25;;;;;;;;;;;;;;;3.80;100.00;95649.53;10884659;27;3330;-71
2024/04/19 05:23:32;;;;;;;;;;;;;;;3.88;100.00;95643.06;10894240;27;3113;-72
2024/04/19 05:28:38;;;;;;;;;;;;;;;4.09;100.00;95639.78;10850966;27;3236;-71
2024/04/19 05:33:44;;;;;;;;;;;;;;;4.21;100.00;95629.91;10849869;27;3185;-70
2024/04/19 05:38:49;;;;;;;;;;;;;;;4.13;100.00;95632.94;10880279;27;3210;-70
2024/04/19 05:43:53;;;;;;;;;;;;;;;4.26;100.00;95635.34;10883271;27;3105;-67
2024/04/19 05:48:58;;;;;;;;;;;;;;;4.76;100.00;95631.16;10893032;27;3038;-67
2024/04/19 05:54:02;;;;;;;;;;;;;;;4.92;100.00;95637.56;10888237;27;3093;-74
2024/04/19 05:59:07;;;;;;;;;;;;;;;4.65;100.00;95624.88;10889354;27;3025;-72
2024/04/19 06:04:12;;;;;;;;;;;;;;;4.64;100.00;95631.22;10878852;27;2954;-71
2024/04/19 06:09:17;;;;;;;;;;;;;;;4.69;100.00;95625.97;10880932;27;3102;-75
2024/04/19 06:14:21;;;;;;;;;;;;;;;4.99;100.00;95627.56;10894327;27;3117;-72
2024/04/19 06:19:26;;;;;;;;;;;;;;;5.06;100.00;95630.84;10884429;27;3207;-72
2024/04/19 06:24:30;;;;;;;;;;;;;;;5.03;100.00;95620.69;10858192;27;3244;-72
2024/04/19 06:29:35;;;;;;;;;;;;;;;5.15;100.00;95618.72;10854390;27;2855;-70
2024/04/19 06:34:39;;;;;;;;;;;;;;;5.19;100.00;95611.06;10882807;27;3155;-70
2024/04/19 06:39:44;;;;;;;;;;;;;;;5.38;100.00;95607.91;10881110;27;3228;-72
2024/04/19 06:45:05;;;;;;;;;;;;;;;5.33;100.00;95605.16;10887169;27;3035;-70
2024/04/19 06:50:09;;;;;;;;;;;;;;;5.25;100.00;95602.91;10873872;27;3170;-72
2024/04/19 06:55:13;;;;;;;;;;;;;;;5.52;100.00;95596.88;10886382;27;3029;-72
2024/04/19 07:00:19;;;;;;;;;;;;;;;5.70;100.00;95599.28;10846920;27;3045;-70
2024/04/19 07:05:43;;;;;;;;;;;;;;;5.70;100.00;95592.06;10885130;27;3566;-72
2024/04/19 07:10:50;;;;;;;;;;;;;;;5.65;100.00;95599.19;10879114;27;3224;-70
2024/04/19 07:15:54;;;;;;;;;;;;;;;6.00;100.00;95596.22;10881884;27;3148;-72
2024/04/19 07:20:58;;;;;;;;;;;;;;;5.72;100.00;95599.81;10890505;27;3073;-70
2024/04/19 07:26:03;;;;;;;;;;;;;;;5.77;100.00;95599.91;10886790;27;2994;-70
2024/04/19 07:31:08;;;;;;;;;;;;;;;5.67;100.00;95594.44;10878028;27;3227;-70
2024/04/19 07:36:13;;;;;;;;;;;;;;;5.67;100.00;95583.78;10882445;27;3131;-70
2024/04/19 07:41:18;;;;;;;;;;;;;;;5.59;100.00;95570.84;10883531;27;3053;-69
2024/04/19 07:46:22;;;;;;;;;;;;;;;5.20;100.00;95581.50;10882054;27;3405;-69
2024/04/19 07:51:27;;;;;;;;;;;;;;;5.23;100.00;95573.03;10892534;27;3121;-70
2024/04/19 07:56:33;;;;;;;;;;;;;;;5.34;100.00;95580.16;10883996;27;3105;-71
2024/04/19 08:01:38;;;;;;;;;;;;;;;5.42;100.00;95570.91;10885297;27;3295;-70
2024/04/19 08:06:42;;;;;;;;;;;;;;;5.73;100.00;95545.44;10880166;26;3073;-77
2024/04/19 08:11:47;;;;;;;;;;;;;;;6.33;100.00;95543.72;10887705;27;3195;-71
2024/04/19 08:16:52;;;;;;;;;;;;;;;6.71;100.00;95519.50;10883983;27;3132;-75
2024/04/19 08:21:56;;;;;;;;;;;;;;;7.25;100.00;95507.81;10855827;27;3026;-73
2024/04/19 08:27:01;;;;;;;;;;;;;;;7.43;100.00;95498.56;10884825;27;3117;-71
2024/04/19 08:32:06;;;;;;;;;;;;;;;8.30;100.00;95470.22;10875518;27;3428;-69
2024/04/19 08:37:10;;;;;;;;;;;;;;;8.33;100.00;95473.16;10885745;27;3113;-70
2024/04/19 08:42:15;;;;;;;;;;;;;;;8.17;100.00;95476.88;10882764;27;2985;-70
2024/04/19 08:47:19;;;;;;;;;;;;;;;8.41;100.00;95455.78;10879845;27;3117;-71
2024/04/19 08:52:24;;;;;;;;;;;;;;;8.46;100.00;95452.28;10884931;27;3105;-70
2024/04/19 08:57:48;;;;;;;;;;;;;;;8.24;100.00;95450.66;10887460;27;2935;-71
2024/04/19 09:02:52;;;;;;;;;;;;;;;8.70;100.00;95439.97;10883282;27;3220;-74
2024/04/19 09:07:57;;;;;;;;;;;;;;;8.85;100.00;95431.13;10881213;27;3553;-71
2024/04/19 09:13:01;;;;;;;;;;;;;;;8.85;100.00;95429.25;10883095;27;3046;-70
2024/04/19 09:18:06;;;;;;;;;;;;;;;8.49;100.00;95419.63;10891975;27;3025;-71
2024/04/19 09:23:11;;;;;;;;;;;;;;;7.96;100.00;95409.13;10883159;27;3127;-69
2024/04/19 09:28:15;;;;;;;;;;;;;;;8.12;100.00;95407.25;10883383;27;2982;-71
2024/04/19 09:33:20;;;;;;;;;;;;;;;8.58;100.00;95380.50;10884889;27;2961;-71
2024/04/19 09:38:24;;;;;;;;;;;;;;;8.31;100.00;95391.47;10891903;27;3220;-72
2024/04/19 09:43:28;;;;;;;;;;;;;;;8.35;100.00;95387.19;10877249;27;3260;-71
2024/04/19 09:48:33;;;;;;;;;;;;;;;7.86;100.00;95368.97;10876677;27;3294;-73
2024/04/19 09:53:37;;;;;;;;;;;;;;;6.85;100.00;95375.59;10879261;27;3113;-71
2024/04/19 09:58:42;;;;;;;;;;;;;;;5.63;100.00;95401.31;10864831;27;3170;-71
2024/04/19 10:03:46;;;;;;;;;;;;;;;6.13;100.00;95385.00;10843845;27;2879;-71
2024/04/19 10:08:50;;;;;;;;;;;;;;;6.82;100.00;95361.97;10875188;27;3128;-70
2024/04/19 10:13:55;;;;;;;;;;;;;;;6.77;100.00;95347.50;10885410;27;2859;-71
2024/04/19 10:18:59;;;;;;;;;;;;;;;6.66;100.00;95339.69;10883016;27;3081;-71
2024/04/19 10:24:04;;;;;;;;;;;;;;;7.00;100.00;95321.44;10873664;27;3230;-70
2024/04/19 10:29:08;;;;;;;;;;;;;;;7.42;100.00;95310.56;10877980;27;3503;-69
2024/04/19 10:34:12;;;;;;;;;;;;;;;7.36;100.00;95290.25;10881687;27;3148;-70
2024/04/19 10:39:16;;;;;;;;;;;;;;;6.86;100.00;95307.72;10846575;27;3128;-70
2024/04/19 10:44:21;;;;;;;;;;;;;;;6.87;100.00;95300.50;10817940;27;3142;-71
2024/04/19 10:49:26;;;;;;;;;;;;;;;6.97;100.00;95252.47;10885810;27;3245;-70
2024/04/19 10:54:30;;;;;;;;;;;;;;;7.69;100.00;95248.81;10879780;27;2970;-71
2024/04/19 10:59:34;;;;;;;;;;;;;;;8.38;100.00;95234.00;10877482;27;3125;-71
2024/04/19 11:04:39;;;;;;;;;;;;;;;8.37;100.00;95195.72;10879679;27;3109;-70
2024/04/19 11:09:47;;;;;;;;;;;;;;;8.31;100.00;95196.78;10874315;27;3243;-70
2024/04/19 11:14:51;;;;;;;;;;;;;;;8.13;100.00;95197.38;10876785;27;3088;-70
2024/04/19 11:19:56;;;;;;;;;;;;;;;7.55;100.00;95191.56;10882138;27;3226;-71
2024/04/19 11:25:00;;;;;;;;;;;;;;;8.12;100.00;95164.44;10881975;27;3370;-70
2024/04/19 11:30:05;;;;;;;;;;;;;;;8.17;100.00;95160.16;10877946;27;3129;-70
2024/04/19 11:35:10;;;;;;;;;;;;;;;8.03;100.00;95173.31;10860039;27;3156;-71
2024/04/19 11:40:15;;;;;;;;;;;;;;;7.58;100.00;95148.25;10847492;27;3128;-71
2024/04/19 11:45:21;;;;;;;;;;;;;;;7.49;100.00;95150.66;10875890;27;3086;-71
2024/04/19 11:50:26;;;;;;;;;;;;;;;7.74;100.00;95149.03;10879303;27;3230;-71
2024/04/19 11:55:30;;;;;;;;;;;;;;;7.42;100.00;95139.44;10881607;27;3183;-71
2024/04/19 12:00:35;;;;;;;;;;;;;;;7.50;100.00;95125.50;10875559;27;3303;-70
2024/04/19 12:05:40;;;;;;;;;;;;;;;7.58;100.00;95127.66;10884176;27;3054;-70
2024/04/19 12:10:45;;;;;;;;;;;;;;;7.52;100.00;95130.63;10882012;27;3243;-71
2024/04/19 12:15:49;;;;;;;;;;;;;;;7.07;100.00;95110.06;10882807;27;3040;-69
2024/04/19 12:21:15;;;;;;;;;;;;;;;7.13;100.00;95125.84;10885980;27;3289;-73
2024/04/19 12:26:20;;;;;;;;;;;;;;;7.12;100.00;95107.38;10878704;27;3158;-69
2024/04/19 12:31:25;;;;;;;;;;;;;;;6.93;100.00;95101.75;10881543;27;3069;-68
2024/04/19 12:36:29;;;;;;;;;;;;;;;6.71;100.00;95075.31;10885823;27;3204;-70
2024/04/19 12:41:34;;;;;;;;;;;;;;;6.71;100.00;95085.97;10881978;27;3270;-71
2024/04/19 12:46:39;;;;;;;;;;;;;;;6.99;100.00;95072.09;10880157;27;2986;-71
2024/04/19 12:51:46;;;;;;;;;;;;;;;7.03;100.00;95069.69;10883027;27;3333;-72
2024/04/19 12:56:52;;;;;;;;;;;;;;;7.44;100.00;95057.06;10880710;27;3210;-71
2024/04/19 13:01:56;;;;;;;;;;;;;;;7.15;100.00;95069.44;10886590;27;3212;-71
2024/04/19 13:07:01;;;;;;;;;;;;;;;6.61;100.00;95075.28;10886130;27;2910;-73
2024/04/19 13:12:05;;;;;;;;;;;;;;;6.47;100.00;95054.44;10881591;27;3135;-74
2024/04/19 13:17:09;;;;;;;;;;;;;;;6.32;100.00;95056.28;10881582;27;3132;-72
2024/04/19 13:22:14;;;;;;;;;;;;;;;6.32;100.00;95041.06;10884005;27;3167;-70
2024/04/19 13:27:18;;;;;;;;;;;;;;;6.10;100.00;95032.47;10880525;27;3147;-71
2024/04/19 13:32:23;;;;;;;;;;;;;;;6.03;100.00;95042.59;10882417;27;3551;-69
2024/04/19 13:37:29;;;;;;;;;;;;;;;5.82;100.00;95037.16;10880734;27;3085;-69
2024/04/19 13:42:34;;;;;;;;;;;;;;;5.74;100.00;95035.00;10874441;27;3140;-71
2024/04/19 13:47:38;;;;;;;;;;;;;;;5.56;100.00;95006.13;10880838;27;3121;-70
2024/04/19 13:52:43;;;;;;;;;;;;;;;5.93;100.00;95003.38;10881771;27;3442;-70
2024/04/19 13:57:47;;;;;;;;;;;;;;;5.84;100.00;95007.56;10877786;27;3235;-69
2024/04/19 14:02:51;;;;;;;;;;;;;;;6.07;100.00;95014.34;10883444;27;2859;-70
2024/04/19 14:07:56;;;;;;;;;;;;;;;6.03;100.00;95005.25;10877378;27;3112;-71
2024/04/19 14:13:04;;;;;;;;;;;;;;;6.17;100.00;95001.81;10882288;27;3478;-70
2024/04/19 14:18:09;;;;;;;;;;;;;;;5.93;100.00;94977.50;10881463;27;3172;-68
2024/04/19 14:23:13;;;;;;;;;;;;;;;5.89;100.00;94999.59;10876092;27;3140;-68
2024/04/19 14:28:17;;;;;;;;;;;;;;;5.67;100.00;94981.13;10872400;27;2998;-69
2024/04/19 14:33:21;;;;;;;;;;;;;;;5.62;100.00;94973.91;10875434;27;3152;-68
2024/04/19 14:38:26;;;;;;;;;;;;;;;5.40;100.00;94984.72;10843257;27;3133;-69
2024/04/19 14:43:30;;;;;;;;;;;;;;;5.39;100.00;94980.47;10848128;27;2945;-69
2024/04/19 14:48:34;;;;;;;;;;;;;;;4.99;100.00;94981.06;10875422;27;3007;-70
2024/04/19 14:53:39;;;;;;;;;;;;;;;4.80;100.00;94970.03;10876899;27;3763;-71
2024/04/19 14:58:44;;;;;;;;;;;;;;;4.64;100.00;94968.31;10875258;27;3097;-70
2024/04/19 15:04:02;;;;;;;;;;;;;;;4.69;100.00;94965.69;10871440;27;3114;-68
2024/04/19 15:09:07;;;;;;;;;;;;;;;4.77;100.00;94961.75;10866135;27;3061;-69
2024/04/19 15:14:11;;;;;;;;;;;;;;;4.70;100.00;94961.97;10878339;27;3129;-69
2024/04/19 15:19:16;;;;;;;;;;;;;;;4.80;100.00;94956.72;10876063;27;3207;-71
2024/04/19 15:24:20;;;;;;;;;;;;;;;4.70;100.00;94935.34;10872156;27;3214;-69
2024/04/19 15:29:25;;;;;;;;;;;;;;;4.48;100.00;94954.13;10880940;27;3172;-69
2024/04/19 15:34:29;;;;;;;;;;;;;;;4.19;100.00;94958.94;10881381;27;3351;-68
2024/04/19 15:39:50;;;;;;;;;;;;;;;4.10;100.00;94952.47;10886240;27;3105;-69
2024/04/19 15:44:54;;;;;;;;;;;;;;;4.07;100.00;94953.78;10883733;27;2997;-69
2024/04/19 15:49:59;;;;;;;;;;;;;;;4.00;100.00;94953.19;10882216;27;3157;-69
2024/04/19 15:55:03;;;;;;;;;;;;;;;4.03;100.00;94952.69;10885353;27;3009;-70
2024/04/19 16:00:09;;;;;;;;;;;;;;;4.00;100.00;94947.06;10882079;27;2998;-69
2024/04/19 16:05:16;;;;;;;;;;;;;;;3.84;100.00;94954.09;10886271;27;3145;-70
2024/04/19 16:10:20;;;;;;;;;;;;;;;3.89;100.00;94956.81;10897455;27;2942;-72
2024/04/19 16:15:25;;;;;;;;;;;;;;;3.83;100.00;94935.75;10897211;27;2963;-72
2024/04/19 16:20:29;;;;;;;;;;;;;;;3.72;100.00;94935.63;10897990;27;3180;-72
2024/04/19 16:25:35;;;;;;;;;;;;;;;3.79;100.00;94925.59;10892690;27;3190;-71
2024/04/19 16:30:42;;;;;;;;;;;;;;;3.66;100.00;94933.97;10892657;27;3242;-71
2024/04/19 16:35:47;;;;;;;;;;;;;;;3.64;100.00;94912.19;10891607;27;3029;-71
2024/04/19 16:41:07;;;;;;;;;;;;;;;3.64;100.00;94920.16;10898206;27;2842;-72
2024/04/19 16:46:11;;;;;;;;;;;;;;;3.60;100.00;94907.59;10895267;27;3104;-71
2024/04/19 16:51:17;;;;;;;;;;;;;;;3.64;100.00;94906.88;10900112;27;2978;-71
2024/04/19 16:56:22;;;;;;;;;;;;;;;3.67;100.00;94894.91;10895020;27;2628;-70
2024/04/19 17:01:26;;;;;;;;;;;;;;;3.51;100.00;94896.63;10902092;27;3117;-71
2024/04/19 17:06:30;;;;;;;;;;;;;;;3.44;100.00;94880.09;10891927;27;3205;-70
2024/04/19 17:11:34;;;;;;;;;;;;;;;3.60;100.00;94892.47;10866668;27;3054;-72
2024/04/19 17:16:38;;;;;;;;;;;;;;;3.53;100.00;94897.19;10891965;27;3176;-73
2024/04/19 17:21:43;;;;;;;;;;;;;;;3.46;100.00;94889.41;10894848;27;3249;-71
2024/04/19 17:26:56;;;;;;;;;;;;;;;3.52;100.00;94876.97;10893535;27;3169;-71
2024/04/19 17:32:00;;;;;;;;;;;;;;;3.48;100.00;94870.56;10902425;27;2954;-73
2024/04/19 17:37:04;;;;;;;;;;;;;;;3.52;100.00;94850.41;10897347;27;3041;-71
2024/04/19 17:42:09;;;;;;;;;;;;;;;3.54;100.00;94872.22;10866089;27;3164;-72
2024/04/19 17:47:14;;;;;;;;;;;;;;;3.62;100.00;94877.06;10899141;27;3028;-72
2024/04/19 17:52:18;;;;;;;;;;;;;;;3.56;100.00;94871.94;10899148;27;3212;-72
2024/04/19 17:57:24;;;;;;;;;;;;;;;3.50;100.00;94873.78;10895669;27;3314;-71
2024/04/19 18:02:28;;;;;;;;;;;;;;;3.43;100.00;94883.78;10897713;27;3144;-71
2024/04/19 18:07:34;;;;;;;;;;;;;;;3.50;100.00;94884.41;10894994;27;3117;-70
2024/04/19 18:12:40;;;;;;;;;;;;;;;3.30;100.00;94886.84;10893823;27;2827;-72
2024/04/19 18:17:44;;;;;;;;;;;;;;;3.21;100.00;94892.59;10901455;27;3030;-73
2024/04/19 18:22:53;;;;;;;;;;;;;;;3.30;100.00;94881.50;10895525;27;3113;-72
2024/04/19 18:27:57;;;;;;;;;;;;;;;3.33;100.00;94876.53;10893950;27;3125;-72
2024/04/19 18:33:03;;;;;;;;;;;;;;;3.32;100.00;94874.91;10896993;27;3218;-72
2024/04/19 18:38:08;;;;;;;;;;;;;;;3.33;100.00;94873.06;10893363;27;3187;-72
2024/04/19 18:43:13;;;;;;;;;;;;;;;3.37;100.00;94879.47;10888784;27;3168;-71
2024/04/19 18:48:21;;;;;;;;;;;;;;;3.42;100.00;94866.25;10890505;27;3219;-71
2024/04/19 18:53:27;;;;;;;;;;;;;;;3.45;100.00;94869.22;10896859;27;2971;-72
2024/04/19 18:58:31;;;;;;;;;;;;;;;3.55;100.00;94875.66;10901188;27;3090;-72
2024/04/19 19:03:36;;;;;;;;;;;;;;;3.55;100.00;94871.16;10893828;27;3073;-71
2024/04/19 19:08:42;;;;;;;;;;;;;;;3.63;100.00;94876.03;10888263;27;3221;-71
2024/04/19 19:13:47;;;;;;;;;;;;;;;3.73;100.00;94884.06;10862642;27;2504;-71
2024/04/19 19:18:54;;;;;;;;;;;;;;;3.84;100.00;94894.81;10891759;27;3015;-72
2024/04/19 19:23:59;;;;;;;;;;;;;;;3.91;100.00;94890.88;10892048;27;3091;-71
2024/04/19 19:29:09;;;;;;;;;;;;;;;3.96;100.00;94887.47;10888234;27;3125;-71
2024/04/19 19:34:14;;;;;;;;;;;;;;;3.91;100.00;94895.41;10888442;27;3145;-71
2024/04/19 19:39:19;;;;;;;;;;;;;;;3.93;100.00;94887.97;10887856;27;3236;-70
2024/04/19 19:44:25;;;;;;;;;;;;;;;3.98;100.00;94898.66;10889349;27;3128;-71
2024/04/19 19:49:30;;;;;;;;;;;;;;;3.95;100.00;94901.84;10887882;27;3031;-72
2024/04/19 19:54:34;;;;;;;;;;;;;;;4.00;100.00;94907.97;10890587;27;3124;-70
2024/04/19 20:10:20;;;;;;;;;;;;;;;4.19;100.00;94883.66;10896094;27;3145;-71
2024/04/19 20:15:26;;;;;;;;;;;;;;;4.22;100.00;94885.81;10887868;27;3120;-71
2024/04/19 20:20:32;;;;;;;;;;;;;;;4.31;100.00;94895.72;10890178;27;2512;-72
2024/04/19 20:25:37;;;;;;;;;;;;;;;4.41;100.00;94904.84;10901929;27;3241;-72
2024/04/19 20:30:41;;;;;;;;;;;;;;;4.43;100.00;94908.84;10894699;27;3216;-71
2024/04/19 20:35:45;;;;;;;;;;;;;;;4.21;100.00;94922.25;10865487;27;3280;-71
2024/04/19 20:40:49;;;;;;;;;;;;;;;4.01;100.00;94922.09;10898971;27;3118;-74
2024/04/19 20:45:54;;;;;;;;;;;;;;;3.90;100.00;94931.81;10897854;27;3121;-72
2024/04/19 20:50:58;;;;;;;;;;;;;;;3.83;100.00;94914.47;10896100;27;3104;-73
2024/04/19 20:56:02;;;;;;;;;;;;;;;3.80;100.00;94937.84;10905004;27;2996;-72
2024/04/19 21:01:06;;;;;;;;;;;;;;;3.76;100.00;94928.78;10900096;27;3085;-72
2024/04/19 21:06:11;;;;;;;;;;;;;;;3.71;100.00;94949.19;10902384;27;3088;-71
2024/04/19 21:11:16;;;;;;;;;;;;;;;3.73;100.00;94939.91;10873238;27;3016;-73
2024/04/19 21:16:21;;;;;;;;;;;;;;;3.78;100.00;94960.41;10898586;27;3087;-72
2024/04/19 21:21:28;;;;;;;;;;;;;;;3.75;100.00;94969.72;10897137;27;3134;-74
2024/04/19 21:26:32;;;;;;;;;;;;;;;3.71;100.00;94965.13;10904571;27;3121;-71
2024/04/19 21:31:37;;;;;;;;;;;;;;;3.63;100.00;94969.03;10896740;27;3180;-71
2024/04/19 21:36:45;;;;;;;;;;;;;;;3.59;100.00;94973.25;10863344;27;3074;-69
2024/04/19 21:41:51;;;;;;;;;;;;;;;3.49;100.00;94984.53;10891593;27;3030;-69
2024/04/19 21:46:56;;;;;;;;;;;;;;;3.45;100.00;94991.44;10887390;27;2883;-72
2024/04/19 21:52:00;;;;;;;;;;;;;;;3.44;100.00;94991.69;10891730;27;3234;-72
2024/04/19 21:57:05;;;;;;;;;;;;;;;3.40;100.00;95023.25;10886056;27;3228;-70
2024/04/19 22:02:12;;;;;;;;;;;;;;;3.42;100.00;95023.78;10886714;27;3136;-71
2024/04/19 22:07:28;;;;;;;;;;;;;;;3.43;100.00;95021.94;10877569;27;3240;-72
2024/04/19 22:12:32;;;;;;;;;;;;;;;3.52;100.00;95047.03;10889732;27;3129;-72
2024/04/19 22:17:41;;;;;;;;;;;;;;;3.59;100.00;95037.03;10886322;27;2878;-72
2024/04/19 22:22:45;;;;;;;;;;;;;;;3.58;100.00;95039.94;10884571;27;3117;-75
2024/04/19 22:27:49;;;;;;;;;;;;;;;3.66;100.00;95052.78;10888685;27;3113;-70
2024/04/19 22:32:54;;;;;;;;;;;;;;;3.60;100.00;95043.13;10885242;27;3046;-71
2024/04/19 22:37:59;;;;;;;;;;;;;;;3.63;100.00;95053.28;10887685;27;3128;-71
2024/04/19 22:43:03;;;;;;;;;;;;;;;3.63;100.00;95059.41;10887065;26;3046;-72
2024/04/19 22:48:10;;;;;;;;;;;;;;;3.70;100.00;95054.72;10888209;27;3165;-71
2024/04/19 22:53:14;;;;;;;;;;;;;;;3.71;100.00;95060.81;10893857;27;3244;-69
2024/04/19 22:58:19;;;;;;;;;;;;;;;3.72;100.00;95057.91;10890164;27;3132;-72
2024/04/19 23:03:23;;;;;;;;;;;;;;;3.70;100.00;95054.72;10890252;27;3132;-73
2024/04/19 23:08:28;;;;;;;;;;;;;;;3.66;100.00;95055.44;10887822;27;2604;-73
2024/04/19 23:13:32;;;;;;;;;;;;;;;3.67;100.00;95057.84;10891895;27;3128;-72
2024/04/19 23:18:37;;;;;;;;;;;;;;;3.72;100.00;95047.28;10889288;27;3006;-71
2024/04/19 23:23:43;;;;;;;;;;;;;;;3.76;100.00;95048.41;10890612;27;2855;-71
2024/04/19 23:28:48;;;;;;;;;;;;;;;3.73;100.00;95059.50;10880923;27;3073;-70
2024/04/19 23:33:53;;;;;;;;;;;;;;;3.73;100.00;95053.41;10883724;27;3312;-72
2024/04/19 23:38:57;;;;;;;;;;;;;;;3.64;100.00;95058.34;10887586;27;3112;-72
2024/04/19 23:44:03;;;;;;;;;;;;;;;3.56;100.00;95045.47;10889977;27;3113;-71
2024/04/19 23:49:07;;;;;;;;;;;;;;;3.55;100.00;95046.53;10887089;27;2965;-70
2024/04/19 23:54:18;;;;;;;;;;;;;;;3.54;100.00;95036.97;10890236;27;3330;-70
2024/04/19 23:59:22;;;;;;;;;;;;;;;3.53;100.00;95038.00;10867472;27;2862;-72
